Main page
METAR-TAF:

METAR-TAF

Airports :

Dublin Airport

Dublin, Ireland

latitude: 53-26N, longitude: 006-15W, elevation: 68 m

Current weather observation

The report was made 25 minutes ago, at 15:00 UTC
Wind 12 kt from the North/Northwest
Temperature 11°C
Humidity 82%
Pressure 1029 hPa
Visibility 10 km or more
Broken clouds at a height of 1800 ft
Broken clouds at a height of 2200 ft

METAR: EIDW 221500Z 34012KT 9999 BKN018 BKN022 11/08 Q1029 NOSIG

Time: 16:25 (15:25 UTC)

Forecast

The report was made 4 hours and 25 minutes ago, at 11:00 UTC
Forecast valid from 22 at 12 UTC to 23 at 12 UTC
Wind 11 kt from the North/Northwest
Visibility 10 km or more
Few clouds at a height of 1500 ft
Broken clouds at a height of 1900 ft
Probability 30% :
Temporary
from 23 at 04 UTC to 23 at 09 UTC
Broken clouds at a height of 1000 ft
Becoming
from 23 at 07 UTC to 23 at 09 UTC
Wind 8 kt from the North

TAF: EIDW 221100Z 2212/2312 33011KT 9999 FEW015 BKN019 PROB30 TEMPO 2304/2309 BKN010 BECMG 2307/2309 01008KT

Weather observations and forecasts of more than 4000 airports (METAR and TAF reports).

The available stations are represented by yellow and red dots on the map.

Hover mouse over dot to see the name of the station.

Then click to see weather observations and forecasts.

To change the map : click on the green buttons with a black cross to zoom in, on the green button with a dash to zoom out, or on the green arrows for adjacent maps.


METAR-TAF: